createdAt,value
2019-05-16T00:00:33.877Z,50.94
2019-05-16T00:03:02.813Z,51.07
2019-05-16T00:05:31.724Z,51.28
2019-05-16T00:08:00.632Z,51.54
2019-05-16T00:10:29.527Z,51.48
2019-05-16T00:12:59.504Z,52.19
2019-05-16T00:15:28.736Z,51.99
2019-05-16T00:17:58.317Z,52.49
2019-05-16T00:20:25.172Z,52.29
2019-05-16T00:22:54.067Z,52.50
2019-05-16T00:25:22.976Z,52.59
2019-05-16T00:27:51.903Z,52.77
2019-05-16T00:30:20.815Z,52.83
2019-05-16T00:32:49.756Z,52.94
2019-05-16T00:35:18.644Z,53.16
2019-05-16T00:37:48.434Z,53.31
2019-05-16T00:40:18.571Z,53.64
2019-05-16T00:42:45.471Z,53.48
2019-05-16T00:45:14.398Z,53.60
2019-05-16T00:47:43.328Z,53.63
2019-05-16T00:50:12.241Z,53.52
2019-05-16T00:52:41.175Z,53.94
2019-05-16T00:55:10.078Z,53.85
2019-05-16T00:57:39.182Z,54.24
2019-05-16T01:00:08.303Z,54.14
2019-05-16T01:02:38.162Z,54.12
2019-05-16T01:05:08.284Z,54.29
2019-05-16T01:07:35.077Z,54.40
2019-05-16T01:10:04.006Z,54.71
2019-05-16T01:12:32.911Z,54.40
2019-05-16T01:15:01.865Z,54.47
2019-05-16T01:17:30.787Z,54.52
2019-05-16T01:19:59.738Z,54.54
2019-05-16T01:22:29.415Z,54.91
2019-05-16T01:24:58.621Z,54.91
2019-05-16T01:27:27.780Z,54.98
2019-05-16T01:29:58.229Z,55.20
2019-05-16T01:32:25.485Z,55.49
2019-05-16T01:34:54.425Z,55.50
2019-05-16T01:37:23.343Z,55.40
2019-05-16T01:39:52.296Z,55.63
2019-05-16T01:42:21.199Z,55.45
2019-05-16T01:44:50.148Z,55.45
2019-05-16T01:47:19.086Z,55.59
2019-05-16T01:49:48.754Z,55.68
2019-05-16T01:52:17.804Z,55.88
2019-05-16T01:54:47.992Z,56.00
2019-05-16T01:57:14.868Z,56.24
2019-05-16T01:59:43.853Z,56.09
2019-05-16T02:02:12.784Z,56.14
2019-05-16T02:04:41.725Z,55.95
2019-05-16T02:07:10.662Z,56.06
2019-05-16T02:09:39.550Z,55.87
2019-05-16T02:12:10.833Z,55.74
2019-05-16T02:14:38.774Z,56.24
2019-05-16T02:17:10.887Z,56.48
2019-05-16T02:19:35.290Z,56.20
2019-05-16T02:22:04.251Z,56.25
2019-05-16T02:24:33.207Z,56.12
2019-05-16T02:27:02.081Z,55.93
2019-05-16T02:29:30.967Z,56.09
2019-05-16T02:32:01.958Z,56.14
2019-05-16T02:34:30.783Z,56.26
2019-05-16T02:37:14.678Z,56.19
2019-05-16T02:39:26.724Z,56.12
2019-05-16T02:41:55.657Z,56.09
2019-05-16T02:44:25.085Z,55.99
2019-05-16T02:46:53.484Z,56.09
2019-05-16T02:49:22.429Z,56.19
2019-05-16T02:51:51.424Z,55.92
2019-05-16T02:54:21.876Z,55.94
2019-05-16T02:56:50.654Z,55.86
2019-05-16T02:59:20.635Z,55.63
2019-05-16T03:01:47.074Z,55.79
2019-05-16T03:04:16.010Z,55.84
2019-05-16T03:06:44.943Z,55.47
2019-05-16T03:09:13.931Z,56.07
2019-05-16T03:11:42.794Z,55.78
2019-05-16T03:14:11.796Z,56.05
2019-05-16T03:16:41.754Z,55.86
2019-05-16T03:19:11.330Z,55.86
2019-05-16T03:21:41.336Z,56.46
2019-05-16T03:24:07.703Z,56.26
2019-05-16T03:26:36.675Z,56.30
2019-05-16T03:29:05.688Z,56.28
2019-05-16T03:31:34.739Z,56.45
2019-05-16T03:34:07.366Z,56.48
2019-05-16T03:36:34.562Z,56.50
2019-05-16T03:39:01.531Z,56.30
2019-05-16T03:41:30.974Z,56.52
2019-05-16T03:44:01.432Z,56.47
2019-05-16T03:46:30.946Z,56.56
2019-05-16T03:48:57.076Z,56.67
2019-05-16T03:51:25.961Z,56.44
2019-05-16T03:53:54.878Z,57.08
2019-05-16T03:56:23.772Z,56.79
2019-05-16T03:58:52.684Z,57.13
2019-05-16T04:01:21.574Z,57.02
2019-05-16T04:03:51.274Z,57.33
2019-05-16T04:06:22.097Z,57.15
2019-05-16T04:08:51.011Z,56.87
2019-05-16T04:11:19.550Z,56.99
2019-05-16T04:13:46.112Z,56.72
2019-05-16T04:16:15.016Z,56.69
2019-05-16T04:18:43.932Z,56.43
2019-05-16T04:21:12.883Z,56.59
2019-05-16T04:23:42.239Z,56.31
2019-05-16T04:26:11.493Z,56.07
2019-05-16T04:28:41.296Z,55.89
2019-05-16T04:31:10.881Z,55.47
2019-05-16T04:33:37.687Z,55.14
2019-05-16T04:36:06.790Z,54.83
2019-05-16T04:38:41.372Z,54.64
2019-05-16T04:41:04.696Z,54.68
2019-05-16T04:43:33.676Z,54.81
2019-05-16T04:46:02.644Z,54.50
2019-05-16T04:48:31.607Z,54.55
2019-05-16T04:51:01.299Z,54.29
2019-05-16T04:53:31.564Z,53.94
2019-05-16T04:56:01.389Z,53.83
2019-05-16T04:58:27.213Z,53.70
2019-05-16T05:00:56.121Z,53.80
2019-05-16T05:03:25.039Z,53.55
2019-05-16T05:05:53.983Z,53.68
2019-05-16T05:08:22.903Z,53.42
2019-05-16T05:10:52.183Z,53.12
2019-05-16T05:13:22.084Z,53.13
2019-05-16T05:15:50.989Z,53.26
2019-05-16T05:18:21.278Z,52.77
2019-05-16T05:20:47.626Z,52.44
2019-05-16T05:23:16.586Z,52.17
2019-05-16T05:25:45.484Z,51.82
2019-05-16T05:28:14.420Z,51.59
2019-05-16T05:30:43.335Z,51.34
2019-05-16T05:33:12.242Z,51.52
2019-05-16T05:35:44.185Z,51.03
2019-05-16T05:38:13.079Z,51.02
2019-05-16T05:40:41.995Z,50.42
2019-05-16T05:43:10.952Z,50.30
2019-05-16T05:45:40.217Z,49.75
2019-05-16T05:48:10.675Z,48.47
2019-05-16T05:50:40.016Z,47.84
2019-05-16T05:53:06.997Z,47.81
2019-05-16T05:55:35.881Z,47.38
2019-05-16T05:58:04.817Z,47.12
2019-05-16T06:00:33.720Z,46.97
2019-05-16T06:03:02.732Z,46.96
2019-05-16T06:05:31.617Z,46.61
2019-05-16T06:08:00.492Z,46.29
2019-05-16T06:10:30.403Z,46.51
2019-05-16T06:13:00.501Z,46.90
2019-05-16T06:15:27.303Z,46.33
2019-05-16T06:17:56.239Z,46.69
2019-05-16T06:20:25.130Z,46.95
2019-05-16T06:22:54.132Z,46.77
2019-05-16T06:25:23.459Z,46.59
2019-05-16T06:27:52.024Z,46.15
2019-05-16T06:30:21.549Z,45.65
2019-05-16T06:32:50.228Z,45.32
2019-05-16T06:35:20.570Z,45.24
2019-05-16T06:37:49.798Z,45.11
2019-05-16T06:40:16.566Z,44.19
2019-05-16T06:42:45.527Z,43.39
2019-05-16T06:45:14.479Z,42.37
2019-05-16T06:47:43.398Z,40.11
2019-05-16T06:50:12.354Z,38.53
2019-05-16T06:52:41.351Z,32.64
2019-05-16T06:55:10.415Z,30.78
2019-05-16T06:57:40.937Z,32.58
2019-05-16T07:00:10.675Z,34.33
2019-05-16T07:02:37.176Z,34.98
2019-05-16T07:05:06.348Z,35.95
2019-05-16T07:07:35.284Z,36.92
2019-05-16T07:10:04.804Z,38.05
2019-05-16T07:12:34.133Z,38.47
2019-05-16T07:15:02.456Z,38.57
2019-05-16T07:17:31.398Z,38.84
2019-05-16T07:20:06.314Z,39.38
2019-05-16T07:22:57.637Z,39.77
2019-05-16T07:25:33.361Z,40.37
2019-05-16T07:28:11.164Z,40.51
2019-05-16T07:30:43.265Z,40.05
2019-05-16T07:33:17.287Z,40.36
2019-05-16T07:36:06.869Z,40.64
2019-05-16T07:38:54.103Z,40.13
2019-05-16T07:41:23.470Z,40.03
2019-05-16T07:44:01.182Z,39.77
2019-05-16T07:46:44.617Z,38.00
2019-05-16T07:49:59.568Z,36.87
2019-05-16T07:52:20.929Z,37.46
2019-05-16T07:54:57.034Z,36.85
2019-05-16T08:01:08.066Z,36.65
2019-05-16T08:03:45.327Z,36.02
2019-05-16T08:06:17.117Z,35.80
2019-05-16T08:12:10.543Z,34.86
2019-05-16T08:14:51.930Z,34.98
2019-05-16T08:17:51.382Z,35.19
2019-05-16T08:20:21.086Z,35.40
2019-05-16T08:23:00.939Z,35.67
2019-05-16T08:25:31.404Z,34.57
2019-05-16T08:28:06.063Z,33.31
2019-05-16T08:31:05.746Z,32.50
2019-05-16T08:33:44.355Z,31.61
2019-05-16T08:36:20.936Z,31.29
2019-05-16T08:38:51.212Z,31.86
2019-05-16T08:41:26.787Z,32.62
2019-05-16T08:44:07.415Z,32.51
2019-05-16T08:46:42.314Z,32.17
2019-05-16T08:49:26.223Z,31.88
2019-05-16T08:52:01.598Z,30.67
2019-05-16T08:54:31.842Z,28.89
2019-05-16T08:57:27.777Z,28.74
2019-05-16T09:00:01.443Z,27.98
2019-05-16T09:02:42.237Z,25.41
2019-05-16T09:05:22.310Z,23.42
2019-05-16T09:08:01.452Z,21.62
2019-05-16T09:11:01.808Z,22.35
2019-05-16T09:13:36.835Z,23.41
2019-05-16T09:16:11.253Z,23.96
2019-05-16T09:18:41.177Z,25.51
2019-05-16T09:21:18.274Z,26.68
2019-05-16T09:23:51.933Z,27.62
2019-05-16T09:26:21.222Z,27.67
2019-05-16T09:28:57.003Z,28.86
2019-05-16T09:31:27.671Z,28.99
2019-05-16T09:33:58.374Z,29.26
2019-05-16T09:36:28.167Z,29.32
2019-05-16T09:39:01.607Z,29.00
2019-05-16T09:41:46.305Z,28.24
2019-05-16T09:44:02.559Z,27.38
2019-05-16T09:46:33.814Z,25.87
2019-05-16T09:49:16.813Z,23.91
2019-05-16T09:51:37.794Z,22.99
2019-05-16T09:54:24.382Z,22.97
2019-05-16T09:57:10.088Z,23.72
2019-05-16T09:59:46.772Z,23.43
2019-05-16T10:02:18.285Z,21.50
2019-05-16T10:04:49.379Z,20.32
2019-05-16T10:07:21.168Z,21.29
2019-05-16T10:09:52.980Z,21.76
2019-05-16T10:12:26.196Z,20.90
2019-05-16T10:14:53.263Z,21.87
2019-05-16T10:17:23.546Z,22.73
2019-05-16T10:20:02.882Z,23.05
2019-05-16T10:22:42.987Z,23.36
2019-05-16T10:25:19.570Z,23.48
2019-05-16T10:28:02.240Z,24.25
2019-05-16T10:30:31.671Z,24.85
2019-05-16T10:33:01.163Z,25.42
2019-05-16T10:35:30.381Z,24.19
2019-05-16T10:38:01.836Z,22.42
2019-05-16T10:40:33.414Z,22.08
2019-05-16T10:43:02.485Z,20.86
2019-05-16T10:45:36.921Z,20.30
2019-05-16T10:48:12.587Z,21.61
2019-05-16T10:50:47.062Z,21.45
2019-05-16T10:53:50.327Z,23.27
2019-05-16T10:55:48.581Z,23.54
2019-05-16T10:58:35.575Z,24.07
2019-05-16T11:01:19.419Z,23.33
2019-05-16T11:03:19.865Z,23.78
2019-05-16T11:06:05.528Z,24.03
2019-05-16T11:08:28.440Z,24.59
2019-05-16T11:11:02.731Z,24.62
2019-05-16T11:13:36.942Z,23.99
2019-05-16T11:16:11.247Z,24.37
2019-05-16T11:18:42.771Z,24.05
2019-05-16T11:21:13.251Z,24.20
2019-05-16T11:23:51.075Z,21.20
2019-05-16T11:26:31.196Z,21.63
2019-05-16T11:31:40.682Z,21.26
2019-05-16T11:34:31.693Z,20.71
2019-05-16T11:37:02.047Z,17.98
2019-05-16T11:39:32.776Z,20.29
2019-05-16T11:42:08.108Z,20.86
2019-05-16T11:44:38.047Z,21.23
2019-05-16T11:47:16.483Z,21.02
2019-05-16T11:49:43.385Z,21.76
2019-05-16T11:52:17.822Z,21.20
2019-05-16T11:54:46.769Z,21.81
2019-05-16T11:57:17.893Z,22.20
2019-05-16T11:59:52.296Z,22.96
2019-05-16T12:02:23.450Z,23.52
2019-05-16T12:04:57.754Z,23.19
2019-05-16T12:07:32.240Z,23.17
2019-05-16T12:10:09.496Z,23.79
2019-05-16T12:12:40.224Z,23.71
2019-05-16T12:15:11.894Z,24.09
2019-05-16T12:17:42.610Z,23.91
2019-05-16T12:20:21.918Z,24.61
2019-05-16T12:22:53.461Z,25.11
2019-05-16T12:25:31.311Z,25.59
2019-05-16T12:28:08.340Z,25.53
2019-05-16T12:30:40.709Z,25.40
2019-05-16T12:33:19.140Z,25.39
2019-05-16T12:35:49.207Z,25.29
2019-05-16T12:38:18.113Z,23.95
2019-05-16T12:40:47.996Z,25.12
2019-05-16T12:43:19.877Z,25.27
2019-05-16T12:45:56.954Z,25.88
2019-05-16T12:48:26.165Z,25.92
2019-05-16T12:50:58.948Z,26.34
2019-05-16T12:53:31.696Z,26.56
2019-05-16T12:56:03.572Z,25.83
2019-05-16T12:58:42.026Z,25.61
2019-05-16T13:01:07.895Z,25.94
2019-05-16T13:03:40.074Z,26.19
2019-05-16T13:06:09.290Z,26.24
2019-05-16T13:08:38.381Z,26.48
2019-05-16T13:11:10.370Z,26.34
2019-05-16T13:13:57.373Z,26.00
2019-05-16T13:16:11.112Z,26.52
2019-05-16T13:18:47.509Z,26.50
2019-05-16T13:21:34.117Z,26.81
2019-05-16T13:24:10.666Z,26.78
2019-05-16T13:26:43.221Z,26.99
2019-05-16T13:29:12.936Z,27.34
2019-05-16T13:31:42.049Z,27.39
2019-05-16T13:34:11.189Z,27.05
2019-05-16T13:36:40.504Z,26.81
2019-05-16T13:39:17.006Z,26.97
2019-05-16T13:41:53.887Z,27.65
2019-05-16T13:44:23.661Z,26.91
2019-05-16T13:46:52.934Z,27.13
2019-05-16T13:49:22.073Z,27.25
2019-05-16T13:51:51.186Z,27.39
2019-05-16T13:54:26.977Z,27.49
2019-05-16T13:57:03.462Z,26.59
2019-05-16T13:59:32.474Z,27.00
2019-05-16T14:05:12.070Z,26.91
2019-05-16T14:07:48.018Z,26.95
2019-05-16T14:10:29.659Z,27.23
2019-05-16T14:12:50.353Z,27.37
2019-05-16T14:15:31.406Z,27.18
2019-05-16T14:17:51.107Z,27.62
2019-05-16T14:20:21.016Z,28.25
2019-05-16T14:22:57.321Z,28.17
2019-05-16T14:25:33.855Z,27.86
2019-05-16T14:28:07.714Z,28.65
2019-05-16T14:30:57.370Z,28.39
2019-05-16T14:33:30.765Z,28.36
2019-05-16T14:36:02.300Z,28.88
2019-05-16T14:38:41.691Z,28.96
2019-05-16T14:41:37.216Z,28.75
2019-05-16T14:44:08.572Z,29.43
2019-05-16T14:46:48.298Z,29.40
2019-05-16T14:49:22.032Z,29.80
2019-05-16T14:52:09.429Z,29.76
2019-05-16T14:54:40.444Z,30.15
2019-05-16T14:57:16.712Z,30.08
2019-05-16T14:59:47.338Z,30.46
2019-05-16T15:02:18.042Z,30.04
2019-05-16T15:04:49.616Z,30.37
2019-05-16T15:07:22.288Z,30.17
2019-05-16T15:09:56.619Z,30.04
2019-05-16T15:12:26.636Z,30.24
2019-05-16T15:17:59.782Z,30.04
2019-05-16T15:20:30.074Z,30.41
2019-05-16T15:22:59.918Z,30.83
2019-05-16T15:25:30.669Z,31.01
2019-05-16T15:28:07.318Z,30.31
2019-05-16T15:30:39.376Z,30.60
2019-05-16T15:33:08.458Z,30.92
2019-05-16T15:35:37.933Z,30.64
2019-05-16T15:38:08.142Z,29.90
2019-05-16T15:40:48.152Z,30.07
2019-05-16T15:43:17.683Z,29.76
2019-05-16T15:45:53.759Z,29.60
2019-05-16T15:48:22.909Z,29.90
2019-05-16T15:50:51.752Z,30.56
2019-05-16T15:53:20.633Z,30.31
2019-05-16T15:55:49.575Z,30.36
2019-05-16T15:58:18.754Z,30.62
2019-05-16T16:00:48.489Z,30.42
2019-05-16T16:03:17.627Z,30.95
2019-05-16T16:05:45.372Z,30.68
2019-05-16T16:08:14.278Z,30.60
2019-05-16T16:10:43.207Z,31.40
2019-05-16T16:13:12.082Z,31.55
2019-05-16T16:15:50.387Z,31.49
2019-05-16T16:18:10.022Z,31.92
2019-05-16T16:20:38.899Z,32.71
2019-05-16T16:23:07.839Z,33.15
2019-05-16T16:25:36.719Z,33.84
2019-05-16T16:28:07.374Z,34.44
2019-05-16T16:30:37.394Z,34.82
2019-05-16T16:33:19.031Z,35.76
2019-05-16T16:35:32.970Z,35.64
2019-05-16T16:38:01.922Z,35.87
2019-05-16T16:40:30.840Z,35.99
2019-05-16T16:42:59.762Z,36.55
2019-05-16T16:45:28.660Z,37.07
2019-05-16T16:47:57.651Z,38.47
2019-05-16T16:50:26.678Z,39.45
2019-05-16T16:52:56.566Z,39.90
2019-05-16T16:55:24.319Z,40.33
2019-05-16T16:57:56.013Z,40.92
2019-05-16T17:00:22.165Z,41.02
2019-05-16T17:03:02.224Z,41.53
2019-05-16T17:05:19.987Z,42.21
2019-05-16T17:07:48.898Z,42.71
2019-05-16T17:10:17.853Z,42.50
2019-05-16T17:12:47.336Z,42.96
2019-05-16T17:15:17.074Z,43.14
2019-05-16T17:17:46.663Z,43.32
2019-05-16T17:20:13.604Z,43.88
2019-05-16T17:22:42.455Z,43.64
2019-05-16T17:25:11.439Z,43.86
2019-05-16T17:27:40.327Z,44.23
2019-05-16T17:30:16.644Z,44.20
2019-05-16T17:32:43.164Z,44.92
2019-05-16T17:35:12.098Z,44.41
2019-05-16T17:37:40.981Z,44.30
2019-05-16T17:40:10.112Z,44.63
2019-05-16T17:42:39.072Z,44.74
2019-05-16T17:45:08.186Z,45.54
2019-05-16T17:47:37.219Z,46.39
2019-05-16T17:50:07.497Z,47.62
2019-05-16T17:52:37.018Z,48.43
2019-05-16T17:55:07.243Z,49.14
2019-05-16T17:57:34.347Z,49.71
2019-05-16T18:00:03.507Z,50.10
2019-05-16T18:02:32.291Z,50.94
2019-05-16T18:05:01.200Z,51.30
2019-05-16T18:07:30.118Z,51.44
2019-05-16T18:09:59.044Z,51.48
2019-05-16T18:12:27.949Z,52.27
2019-05-16T18:14:57.198Z,52.50
2019-05-16T18:17:26.827Z,52.70
2019-05-16T18:19:54.671Z,53.43
2019-05-16T18:22:23.596Z,53.79
2019-05-16T18:24:52.471Z,54.38
2019-05-16T18:27:21.381Z,54.25
2019-05-16T18:29:50.269Z,54.46
2019-05-16T18:32:19.173Z,54.95
2019-05-16T18:34:48.047Z,54.83
2019-05-16T18:37:17.416Z,55.08
2019-05-16T18:39:47.427Z,55.19
2019-05-16T18:42:16.774Z,55.16
2019-05-16T18:44:43.692Z,55.73
2019-05-16T18:47:12.642Z,55.82
2019-05-16T18:49:41.555Z,55.83
2019-05-16T18:52:10.457Z,55.85
2019-05-16T18:54:39.365Z,55.96
2019-05-16T18:57:08.372Z,56.00
2019-05-16T18:59:37.290Z,55.89
2019-05-16T19:02:09.692Z,55.77
2019-05-16T19:04:37.691Z,55.94
2019-05-16T19:07:04.239Z,55.58
2019-05-16T19:09:33.161Z,55.53
2019-05-16T19:12:02.036Z,55.66
2019-05-16T19:14:30.942Z,55.58
2019-05-16T19:16:59.872Z,55.59
2019-05-16T19:19:28.770Z,55.73
2019-05-16T19:21:59.581Z,55.62
2019-05-16T19:24:27.819Z,55.74
2019-05-16T19:26:57.356Z,55.71
2019-05-16T19:29:26.310Z,55.29
2019-05-16T19:31:53.274Z,55.17
2019-05-16T19:34:22.183Z,55.31
2019-05-16T19:36:51.087Z,55.35
2019-05-16T19:39:19.973Z,55.18
2019-05-16T19:41:48.905Z,55.16
2019-05-16T19:44:17.887Z,54.91
2019-05-16T19:46:47.040Z,55.26
2019-05-16T19:49:15.658Z,55.12
2019-05-16T19:51:46.835Z,55.48
2019-05-16T19:54:13.442Z,55.47
2019-05-16T19:56:42.387Z,55.69
2019-05-16T19:59:11.306Z,55.87
2019-05-16T20:01:40.181Z,55.99
2019-05-16T20:04:09.115Z,56.00
2019-05-16T20:06:38.019Z,55.91
2019-05-16T20:09:07.676Z,56.17
2019-05-16T20:11:36.994Z,56.05
2019-05-16T20:14:07.323Z,56.44
2019-05-16T20:16:36.624Z,56.78
2019-05-16T20:19:03.297Z,56.78
2019-05-16T20:21:32.192Z,57.39
2019-05-16T20:24:01.095Z,57.35
2019-05-16T20:26:30.000Z,58.05
2019-05-16T20:28:59.544Z,57.89
2019-05-16T20:31:27.851Z,58.28
2019-05-16T20:33:56.721Z,58.42
2019-05-16T20:36:26.443Z,58.72
2019-05-16T20:38:54.605Z,58.68
2019-05-16T20:41:23.514Z,58.58
2019-05-16T20:43:52.422Z,59.09
2019-05-16T20:46:21.344Z,58.72
2019-05-16T20:48:50.264Z,58.67
2019-05-16T20:51:20.239Z,58.75
2019-05-16T20:53:49.781Z,58.61
2019-05-16T20:56:17.221Z,59.10
2019-05-16T20:58:46.697Z,59.02
2019-05-16T21:01:17.184Z,59.11
2019-05-16T21:03:43.735Z,59.21
2019-05-16T21:06:12.728Z,59.42
2019-05-16T21:08:41.631Z,59.46
2019-05-16T21:11:10.523Z,59.53
2019-05-16T21:13:39.454Z,59.73
2019-05-16T21:16:08.404Z,59.78
2019-05-16T21:18:37.834Z,60.11
2019-05-16T21:21:07.670Z,60.12
2019-05-16T21:23:36.579Z,60.23
2019-05-16T21:26:04.122Z,60.40
2019-05-16T21:28:33.042Z,60.99
2019-05-16T21:31:01.975Z,61.18
2019-05-16T21:33:30.862Z,61.25
2019-05-16T21:35:59.776Z,61.87
2019-05-16T21:38:28.655Z,62.05
2019-05-16T21:40:58.461Z,62.16
2019-05-16T21:43:27.089Z,62.19
2019-05-16T21:45:56.691Z,62.09
2019-05-16T21:48:24.230Z,61.99
2019-05-16T21:50:53.148Z,62.03
2019-05-16T21:53:22.024Z,62.18
2019-05-16T21:55:50.924Z,62.53
2019-05-16T21:58:19.819Z,62.82
2019-05-16T22:00:48.763Z,62.67
2019-05-16T22:03:17.916Z,62.83
2019-05-16T22:05:46.813Z,62.67
2019-05-16T22:08:16.761Z,62.91
2019-05-16T22:10:46.741Z,63.13
2019-05-16T22:13:13.508Z,63.07
2019-05-16T22:15:42.434Z,63.38
2019-05-16T22:18:11.321Z,63.87
2019-05-16T22:20:40.193Z,63.87
2019-05-16T22:23:09.146Z,63.77
2019-05-16T22:25:38.052Z,64.25
2019-05-16T22:28:07.355Z,64.51
2019-05-16T22:30:36.562Z,64.44
2019-05-16T22:33:08.819Z,64.48
2019-05-16T22:35:33.845Z,64.42
2019-05-16T22:38:02.782Z,64.63
2019-05-16T22:40:33.337Z,64.84
2019-05-16T22:43:00.609Z,65.22
2019-05-16T22:45:29.522Z,65.58
2019-05-16T22:47:58.431Z,65.70
2019-05-16T22:50:27.349Z,65.53
2019-05-16T22:52:56.957Z,66.05
2019-05-16T22:55:26.504Z,66.07
2019-05-16T22:57:56.390Z,66.38
2019-05-16T23:00:26.549Z,66.37
2019-05-16T23:02:56.643Z,66.42
2019-05-16T23:05:23.824Z,66.89
2019-05-16T23:08:02.888Z,66.79
2019-05-16T23:10:21.695Z,67.11
2019-05-16T23:12:50.600Z,67.39
2019-05-16T23:15:19.503Z,67.67
2019-05-16T23:17:48.487Z,67.53
2019-05-16T23:20:17.320Z,67.67
2019-05-16T23:22:46.974Z,67.41
2019-05-16T23:25:17.180Z,67.79
2019-05-16T23:27:44.154Z,67.57
2019-05-16T23:30:13.099Z,67.25
2019-05-16T23:32:42.019Z,67.44
2019-05-16T23:35:11.072Z,67.88
2019-05-16T23:37:43.161Z,67.73
2019-05-16T23:40:12.069Z,68.31
2019-05-16T23:42:40.966Z,67.85
2019-05-16T23:45:09.892Z,68.18
2019-05-16T23:47:38.809Z,67.96
2019-05-16T23:50:07.908Z,68.18
2019-05-16T23:52:37.082Z,67.92
2019-05-16T23:55:08.153Z,68.03
2019-05-16T23:57:37.125Z,68.27
